sensor_id;sensor_type;location;lat;lon;timestamp;P1;durP1;ratioP1;P2;durP2;ratioP2
11691;SDS011;33659;42.672;23.354;2023-07-29T00:01:44;3.05;;;2.45;;
11691;SDS011;33659;42.672;23.354;2023-07-29T00:04:11;3.25;;;2.30;;
11691;SDS011;33659;42.672;23.354;2023-07-29T00:06:38;3.65;;;2.20;;
11691;SDS011;33659;42.672;23.354;2023-07-29T00:09:04;6.30;;;2.58;;
11691;SDS011;33659;42.672;23.354;2023-07-29T00:11:31;2.95;;;2.40;;
11691;SDS011;33659;42.672;23.354;2023-07-29T00:14:00;4.47;;;2.13;;
11691;SDS011;33659;42.672;23.354;2023-07-29T00:16:27;2.80;;;2.50;;
11691;SDS011;33659;42.672;23.354;2023-07-29T00:18:54;2.90;;;2.28;;
11691;SDS011;33659;42.672;23.354;2023-07-29T00:21:20;2.70;;;2.30;;
11691;SDS011;33659;42.672;23.354;2023-07-29T00:23:47;6.25;;;2.85;;
11691;SDS011;33659;42.672;23.354;2023-07-29T00:26:14;3.30;;;2.25;;
11691;SDS011;33659;42.672;23.354;2023-07-29T00:28:41;3.38;;;2.20;;
11691;SDS011;33659;42.672;23.354;2023-07-29T00:31:09;3.33;;;2.33;;
11691;SDS011;33659;42.672;23.354;2023-07-29T00:33:35;2.38;;;2.10;;
11691;SDS011;33659;42.672;23.354;2023-07-29T00:36:02;2.10;;;2.00;;
11691;SDS011;33659;42.672;23.354;2023-07-29T00:38:29;2.70;;;2.38;;
11691;SDS011;33659;42.672;23.354;2023-07-29T00:40:56;2.08;;;1.92;;
11691;SDS011;33659;42.672;23.354;2023-07-29T00:43:24;2.75;;;2.33;;
11691;SDS011;33659;42.672;23.354;2023-07-29T00:45:50;2.55;;;2.13;;
11691;SDS011;33659;42.672;23.354;2023-07-29T00:48:19;3.50;;;2.47;;
11691;SDS011;33659;42.672;23.354;2023-07-29T00:50:46;2.58;;;2.33;;
11691;SDS011;33659;42.672;23.354;2023-07-29T00:53:13;3.50;;;2.15;;
11691;SDS011;33659;42.672;23.354;2023-07-29T00:55:40;2.78;;;2.50;;
11691;SDS011;33659;42.672;23.354;2023-07-29T00:58:07;2.45;;;2.25;;
11691;SDS011;33659;42.672;23.354;2023-07-29T01:00:34;3.13;;;2.40;;
11691;SDS011;33659;42.672;23.354;2023-07-29T01:03:01;2.97;;;2.65;;
11691;SDS011;33659;42.672;23.354;2023-07-29T01:05:31;3.72;;;2.30;;
11691;SDS011;33659;42.672;23.354;2023-07-29T01:08:04;2.78;;;2.40;;
11691;SDS011;33659;42.672;23.354;2023-07-29T01:10:37;2.92;;;2.38;;
11691;SDS011;33659;42.672;23.354;2023-07-29T01:13:13;3.35;;;2.33;;
11691;SDS011;33659;42.672;23.354;2023-07-29T01:15:47;5.57;;;2.47;;
11691;SDS011;33659;42.672;23.354;2023-07-29T01:18:18;2.90;;;2.30;;
11691;SDS011;33659;42.672;23.354;2023-07-29T01:20:50;2.55;;;2.35;;
11691;SDS011;33659;42.672;23.354;2023-07-29T01:23:24;2.45;;;2.25;;
11691;SDS011;33659;42.672;23.354;2023-07-29T01:25:51;5.07;;;2.35;;
11691;SDS011;33659;42.672;23.354;2023-07-29T01:28:18;2.88;;;2.40;;
11691;SDS011;33659;42.672;23.354;2023-07-29T01:30:44;4.18;;;2.38;;
11691;SDS011;33659;42.672;23.354;2023-07-29T01:33:14;2.72;;;2.50;;
11691;SDS011;33659;42.672;23.354;2023-07-29T01:35:45;2.75;;;2.28;;
11691;SDS011;33659;42.672;23.354;2023-07-29T01:38:15;2.78;;;2.58;;
11691;SDS011;33659;42.672;23.354;2023-07-29T01:40:46;3.33;;;2.20;;
11691;SDS011;33659;42.672;23.354;2023-07-29T01:43:15;4.80;;;2.67;;
11691;SDS011;33659;42.672;23.354;2023-07-29T01:45:43;2.35;;;2.15;;
11691;SDS011;33659;42.672;23.354;2023-07-29T01:48:10;4.95;;;2.90;;
11691;SDS011;33659;42.672;23.354;2023-07-29T01:50:37;2.80;;;2.42;;
11691;SDS011;33659;42.672;23.354;2023-07-29T01:53:04;6.18;;;2.58;;
11691;SDS011;33659;42.672;23.354;2023-07-29T01:55:30;2.80;;;2.42;;
11691;SDS011;33659;42.672;23.354;2023-07-29T01:57:58;2.92;;;2.30;;
11691;SDS011;33659;42.672;23.354;2023-07-29T02:00:25;2.45;;;2.25;;
11691;SDS011;33659;42.672;23.354;2023-07-29T02:02:52;4.07;;;2.42;;
11691;SDS011;33659;42.672;23.354;2023-07-29T02:05:19;2.88;;;2.40;;
11691;SDS011;33659;42.672;23.354;2023-07-29T02:07:45;4.93;;;2.55;;
11691;SDS011;33659;42.672;23.354;2023-07-29T02:10:12;3.97;;;3.03;;
11691;SDS011;33659;42.672;23.354;2023-07-29T02:12:39;3.75;;;2.90;;
11691;SDS011;33659;42.672;23.354;2023-07-29T02:15:08;3.33;;;2.60;;
11691;SDS011;33659;42.672;23.354;2023-07-29T02:17:35;2.75;;;2.47;;
11691;SDS011;33659;42.672;23.354;2023-07-29T02:20:02;3.17;;;2.40;;
11691;SDS011;33659;42.672;23.354;2023-07-29T02:22:30;2.78;;;2.47;;
11691;SDS011;33659;42.672;23.354;2023-07-29T02:24:57;2.67;;;2.47;;
11691;SDS011;33659;42.672;23.354;2023-07-29T02:27:24;2.97;;;2.42;;
11691;SDS011;33659;42.672;23.354;2023-07-29T02:29:52;4.15;;;2.67;;
11691;SDS011;33659;42.672;23.354;2023-07-29T02:32:20;5.35;;;2.50;;
11691;SDS011;33659;42.672;23.354;2023-07-29T02:34:48;3.63;;;2.70;;
11691;SDS011;33659;42.672;23.354;2023-07-29T02:37:14;4.22;;;2.80;;
11691;SDS011;33659;42.672;23.354;2023-07-29T02:39:41;3.95;;;2.80;;
11691;SDS011;33659;42.672;23.354;2023-07-29T02:42:08;4.72;;;2.85;;
11691;SDS011;33659;42.672;23.354;2023-07-29T02:44:35;3.53;;;2.65;;
11691;SDS011;33659;42.672;23.354;2023-07-29T02:47:01;7.20;;;3.22;;
11691;SDS011;33659;42.672;23.354;2023-07-29T02:49:30;3.30;;;2.42;;
11691;SDS011;33659;42.672;23.354;2023-07-29T02:51:56;5.25;;;2.30;;
11691;SDS011;33659;42.672;23.354;2023-07-29T02:54:23;2.72;;;2.25;;
11691;SDS011;33659;42.672;23.354;2023-07-29T02:56:50;4.22;;;2.28;;
11691;SDS011;33659;42.672;23.354;2023-07-29T02:59:17;2.83;;;2.53;;
11691;SDS011;33659;42.672;23.354;2023-07-29T03:01:43;3.53;;;2.28;;
11691;SDS011;33659;42.672;23.354;2023-07-29T03:04:10;4.07;;;2.35;;
11691;SDS011;33659;42.672;23.354;2023-07-29T03:06:39;5.25;;;3.78;;
11691;SDS011;33659;42.672;23.354;2023-07-29T03:09:06;3.58;;;2.70;;
11691;SDS011;33659;42.672;23.354;2023-07-29T03:11:33;4.15;;;2.60;;
11691;SDS011;33659;42.672;23.354;2023-07-29T03:13:59;4.60;;;2.80;;
11691;SDS011;33659;42.672;23.354;2023-07-29T03:16:27;5.82;;;2.88;;
11691;SDS011;33659;42.672;23.354;2023-07-29T03:18:53;2.50;;;2.30;;
11691;SDS011;33659;42.672;23.354;2023-07-29T03:21:20;3.03;;;2.60;;
11691;SDS011;33659;42.672;23.354;2023-07-29T03:23:48;4.95;;;2.67;;
11691;SDS011;33659;42.672;23.354;2023-07-29T03:26:15;3.10;;;2.88;;
11691;SDS011;33659;42.672;23.354;2023-07-29T03:28:42;3.45;;;2.40;;
11691;SDS011;33659;42.672;23.354;2023-07-29T03:31:10;4.25;;;2.60;;
11691;SDS011;33659;42.672;23.354;2023-07-29T03:33:37;2.53;;;2.33;;
11691;SDS011;33659;42.672;23.354;2023-07-29T03:36:03;3.60;;;3.13;;
11691;SDS011;33659;42.672;23.354;2023-07-29T03:38:30;3.83;;;2.78;;
11691;SDS011;33659;42.672;23.354;2023-07-29T03:40:59;5.80;;;3.03;;
11691;SDS011;33659;42.672;23.354;2023-07-29T03:43:27;5.20;;;2.70;;
11691;SDS011;33659;42.672;23.354;2023-07-29T03:45:54;3.10;;;2.80;;
11691;SDS011;33659;42.672;23.354;2023-07-29T03:48:21;4.25;;;2.55;;
11691;SDS011;33659;42.672;23.354;2023-07-29T03:50:48;5.07;;;2.80;;
11691;SDS011;33659;42.672;23.354;2023-07-29T03:53:15;3.20;;;2.45;;
11691;SDS011;33659;42.672;23.354;2023-07-29T03:55:42;3.08;;;2.78;;
11691;SDS011;33659;42.672;23.354;2023-07-29T03:58:10;2.55;;;2.35;;
11691;SDS011;33659;42.672;23.354;2023-07-29T04:00:37;4.28;;;3.08;;
11691;SDS011;33659;42.672;23.354;2023-07-29T04:03:04;4.00;;;2.92;;
11691;SDS011;33659;42.672;23.354;2023-07-29T04:05:30;2.67;;;2.35;;
11691;SDS011;33659;42.672;23.354;2023-07-29T04:07:57;2.75;;;2.53;;
11691;SDS011;33659;42.672;23.354;2023-07-29T04:10:24;3.38;;;2.70;;
11691;SDS011;33659;42.672;23.354;2023-07-29T04:12:51;3.03;;;2.72;;
11691;SDS011;33659;42.672;23.354;2023-07-29T04:15:19;5.13;;;2.70;;
11691;SDS011;33659;42.672;23.354;2023-07-29T04:17:46;3.38;;;3.08;;
11691;SDS011;33659;42.672;23.354;2023-07-29T04:20:12;3.53;;;2.65;;
11691;SDS011;33659;42.672;23.354;2023-07-29T04:22:39;3.30;;;2.72;;
11691;SDS011;33659;42.672;23.354;2023-07-29T04:25:06;4.38;;;2.92;;
11691;SDS011;33659;42.672;23.354;2023-07-29T04:27:33;4.75;;;2.92;;
11691;SDS011;33659;42.672;23.354;2023-07-29T04:30:00;2.90;;;2.60;;
11691;SDS011;33659;42.672;23.354;2023-07-29T04:32:28;4.47;;;2.83;;
11691;SDS011;33659;42.672;23.354;2023-07-29T04:34:55;12.18;;;3.45;;
11691;SDS011;33659;42.672;23.354;2023-07-29T04:37:21;3.67;;;2.55;;
11691;SDS011;33659;42.672;23.354;2023-07-29T04:39:48;3.90;;;2.63;;
11691;SDS011;33659;42.672;23.354;2023-07-29T04:42:15;2.95;;;2.67;;
11691;SDS011;33659;42.672;23.354;2023-07-29T04:44:41;4.47;;;2.58;;
11691;SDS011;33659;42.672;23.354;2023-07-29T04:47:08;2.75;;;2.53;;
11691;SDS011;33659;42.672;23.354;2023-07-29T04:49:38;3.70;;;3.22;;
11691;SDS011;33659;42.672;23.354;2023-07-29T04:52:05;4.30;;;2.53;;
11691;SDS011;33659;42.672;23.354;2023-07-29T04:54:32;2.75;;;2.55;;
11691;SDS011;33659;42.672;23.354;2023-07-29T04:56:59;3.13;;;2.80;;
11691;SDS011;33659;42.672;23.354;2023-07-29T04:59:25;3.17;;;2.88;;
11691;SDS011;33659;42.672;23.354;2023-07-29T05:01:52;3.50;;;2.92;;
11691;SDS011;33659;42.672;23.354;2023-07-29T05:04:19;3.63;;;2.70;;
11691;SDS011;33659;42.672;23.354;2023-07-29T05:06:47;4.25;;;2.63;;
11691;SDS011;33659;42.672;23.354;2023-07-29T05:09:14;4.53;;;2.85;;
11691;SDS011;33659;42.672;23.354;2023-07-29T05:11:41;4.50;;;2.55;;
11691;SDS011;33659;42.672;23.354;2023-07-29T05:14:08;3.90;;;2.88;;
11691;SDS011;33659;42.672;23.354;2023-07-29T05:16:35;3.53;;;2.38;;
11691;SDS011;33659;42.672;23.354;2023-07-29T05:19:02;4.40;;;2.83;;
11691;SDS011;33659;42.672;23.354;2023-07-29T05:21:29;6.18;;;3.70;;
11691;SDS011;33659;42.672;23.354;2023-07-29T05:23:57;4.00;;;2.67;;
11691;SDS011;33659;42.672;23.354;2023-07-29T05:26:24;3.50;;;2.92;;
11691;SDS011;33659;42.672;23.354;2023-07-29T05:28:51;2.35;;;2.10;;
11691;SDS011;33659;42.672;23.354;2023-07-29T05:31:18;7.55;;;3.40;;
11691;SDS011;33659;42.672;23.354;2023-07-29T05:33:44;3.35;;;2.28;;
11691;SDS011;33659;42.672;23.354;2023-07-29T05:36:11;3.25;;;2.80;;
11691;SDS011;33659;42.672;23.354;2023-07-29T05:38:38;3.65;;;2.58;;
11691;SDS011;33659;42.672;23.354;2023-07-29T05:41:06;5.50;;;2.70;;
11691;SDS011;33659;42.672;23.354;2023-07-29T05:43:33;3.90;;;3.00;;
11691;SDS011;33659;42.672;23.354;2023-07-29T05:46:00;3.05;;;2.72;;
11691;SDS011;33659;42.672;23.354;2023-07-29T05:48:27;4.82;;;3.25;;
11691;SDS011;33659;42.672;23.354;2023-07-29T05:50:53;3.05;;;2.67;;
11691;SDS011;33659;42.672;23.354;2023-07-29T05:53:20;3.08;;;2.53;;
11691;SDS011;33659;42.672;23.354;2023-07-29T05:55:47;4.32;;;2.72;;
11691;SDS011;33659;42.672;23.354;2023-07-29T05:58:15;3.40;;;2.70;;
11691;SDS011;33659;42.672;23.354;2023-07-29T06:00:42;3.13;;;2.83;;
11691;SDS011;33659;42.672;23.354;2023-07-29T06:03:08;4.45;;;2.83;;
11691;SDS011;33659;42.672;23.354;2023-07-29T06:05:35;3.03;;;2.60;;
11691;SDS011;33659;42.672;23.354;2023-07-29T06:08:02;2.92;;;2.45;;
11691;SDS011;33659;42.672;23.354;2023-07-29T06:10:29;3.67;;;3.10;;
11691;SDS011;33659;42.672;23.354;2023-07-29T06:12:56;6.03;;;2.80;;
11691;SDS011;33659;42.672;23.354;2023-07-29T06:15:24;3.47;;;2.97;;
11691;SDS011;33659;42.672;23.354;2023-07-29T06:17:51;3.13;;;2.83;;
11691;SDS011;33659;42.672;23.354;2023-07-29T06:20:17;3.25;;;2.85;;
11691;SDS011;33659;42.672;23.354;2023-07-29T06:22:44;3.38;;;3.03;;
11691;SDS011;33659;42.672;23.354;2023-07-29T06:25:11;3.20;;;2.90;;
11691;SDS011;33659;42.672;23.354;2023-07-29T06:27:38;5.15;;;3.00;;
11691;SDS011;33659;42.672;23.354;2023-07-29T06:30:05;5.30;;;3.70;;
11691;SDS011;33659;42.672;23.354;2023-07-29T06:32:34;3.97;;;2.85;;
11691;SDS011;33659;42.672;23.354;2023-07-29T06:35:01;5.32;;;2.58;;
11691;SDS011;33659;42.672;23.354;2023-07-29T06:37:27;3.35;;;3.05;;
11691;SDS011;33659;42.672;23.354;2023-07-29T06:39:54;6.13;;;3.08;;
11691;SDS011;33659;42.672;23.354;2023-07-29T06:42:21;7.53;;;3.05;;
11691;SDS011;33659;42.672;23.354;2023-07-29T06:44:48;3.60;;;3.03;;
11691;SDS011;33659;42.672;23.354;2023-07-29T06:47:14;3.75;;;3.08;;
11691;SDS011;33659;42.672;23.354;2023-07-29T06:49:43;5.68;;;3.95;;
11691;SDS011;33659;42.672;23.354;2023-07-29T06:52:09;5.78;;;3.22;;
11691;SDS011;33659;42.672;23.354;2023-07-29T06:54:36;5.88;;;3.28;;
11691;SDS011;33659;42.672;23.354;2023-07-29T06:57:03;3.90;;;3.50;;
11691;SDS011;33659;42.672;23.354;2023-07-29T06:59:30;6.82;;;3.13;;
11691;SDS011;33659;42.672;23.354;2023-07-29T07:01:57;5.47;;;3.85;;
11691;SDS011;33659;42.672;23.354;2023-07-29T07:04:25;4.10;;;3.08;;
11691;SDS011;33659;42.672;23.354;2023-07-29T07:06:53;6.82;;;3.40;;
11691;SDS011;33659;42.672;23.354;2023-07-29T07:09:19;4.88;;;3.05;;
11691;SDS011;33659;42.672;23.354;2023-07-29T07:11:46;6.35;;;3.00;;
11691;SDS011;33659;42.672;23.354;2023-07-29T07:14:13;10.13;;;3.28;;
11691;SDS011;33659;42.672;23.354;2023-07-29T07:16:40;7.20;;;2.95;;
11691;SDS011;33659;42.672;23.354;2023-07-29T07:19:06;5.10;;;3.10;;
11691;SDS011;33659;42.672;23.354;2023-07-29T07:21:33;11.27;;;3.30;;
11691;SDS011;33659;42.672;23.354;2023-07-29T07:24:01;5.28;;;2.88;;
11691;SDS011;33659;42.672;23.354;2023-07-29T07:26:28;5.25;;;3.35;;
11691;SDS011;33659;42.672;23.354;2023-07-29T07:28:55;5.05;;;3.30;;
11691;SDS011;33659;42.672;23.354;2023-07-29T07:31:21;7.10;;;3.05;;
11691;SDS011;33659;42.672;23.354;2023-07-29T07:33:48;6.15;;;3.20;;
11691;SDS011;33659;42.672;23.354;2023-07-29T07:36:15;4.03;;;3.08;;
11691;SDS011;33659;42.672;23.354;2023-07-29T07:38:42;4.82;;;3.42;;
11691;SDS011;33659;42.672;23.354;2023-07-29T07:41:10;5.85;;;3.35;;
11691;SDS011;33659;42.672;23.354;2023-07-29T07:43:37;9.23;;;3.22;;
11691;SDS011;33659;42.672;23.354;2023-07-29T07:46:03;6.70;;;3.30;;
11691;SDS011;33659;42.672;23.354;2023-07-29T07:48:31;7.03;;;3.10;;
11691;SDS011;33659;42.672;23.354;2023-07-29T07:50:58;3.50;;;2.92;;
11691;SDS011;33659;42.672;23.354;2023-07-29T07:53:25;4.10;;;3.00;;
11691;SDS011;33659;42.672;23.354;2023-07-29T07:55:52;5.15;;;2.92;;
11691;SDS011;33659;42.672;23.354;2023-07-29T07:58:20;3.95;;;2.92;;
11691;SDS011;33659;42.672;23.354;2023-07-29T08:00:46;7.35;;;3.05;;
11691;SDS011;33659;42.672;23.354;2023-07-29T08:03:13;5.88;;;3.25;;
11691;SDS011;33659;42.672;23.354;2023-07-29T08:05:40;8.30;;;3.63;;
11691;SDS011;33659;42.672;23.354;2023-07-29T08:08:07;3.88;;;3.00;;
11691;SDS011;33659;42.672;23.354;2023-07-29T08:10:33;6.15;;;3.22;;
11691;SDS011;33659;42.672;23.354;2023-07-29T08:13:00;7.00;;;3.10;;
11691;SDS011;33659;42.672;23.354;2023-07-29T08:15:29;3.72;;;3.10;;
11691;SDS011;33659;42.672;23.354;2023-07-29T08:17:55;6.90;;;3.30;;
11691;SDS011;33659;42.672;23.354;2023-07-29T08:20:22;5.07;;;3.08;;
11691;SDS011;33659;42.672;23.354;2023-07-29T08:22:49;12.85;;;4.50;;
11691;SDS011;33659;42.672;23.354;2023-07-29T08:25:16;5.45;;;3.17;;
11691;SDS011;33659;42.672;23.354;2023-07-29T08:27:42;4.22;;;3.20;;
11691;SDS011;33659;42.672;23.354;2023-07-29T08:30:09;8.70;;;3.92;;
11691;SDS011;33659;42.672;23.354;2023-07-29T08:32:38;11.73;;;5.35;;
11691;SDS011;33659;42.672;23.354;2023-07-29T08:35:04;3.92;;;2.78;;
11691;SDS011;33659;42.672;23.354;2023-07-29T08:37:31;3.90;;;2.60;;
11691;SDS011;33659;42.672;23.354;2023-07-29T08:39:58;4.72;;;2.75;;
11691;SDS011;33659;42.672;23.354;2023-07-29T08:42:26;4.22;;;3.17;;
11691;SDS011;33659;42.672;23.354;2023-07-29T08:44:58;3.90;;;2.60;;
11691;SDS011;33659;42.672;23.354;2023-07-29T08:47:28;3.58;;;2.45;;
11691;SDS011;33659;42.672;23.354;2023-07-29T08:49:56;5.20;;;2.35;;
11691;SDS011;33659;42.672;23.354;2023-07-29T08:52:24;3.20;;;2.90;;
11691;SDS011;33659;42.672;23.354;2023-07-29T08:54:52;3.28;;;2.50;;
11691;SDS011;33659;42.672;23.354;2023-07-29T08:57:19;3.17;;;2.25;;
11691;SDS011;33659;42.672;23.354;2023-07-29T08:59:48;5.90;;;2.25;;
11691;SDS011;33659;42.672;23.354;2023-07-29T09:02:14;2.38;;;2.17;;
11691;SDS011;33659;42.672;23.354;2023-07-29T09:04:42;4.32;;;2.53;;
11691;SDS011;33659;42.672;23.354;2023-07-29T09:07:10;2.47;;;2.17;;
11691;SDS011;33659;42.672;23.354;2023-07-29T09:09:37;2.22;;;1.92;;
11691;SDS011;33659;42.672;23.354;2023-07-29T09:12:04;3.22;;;2.22;;
11691;SDS011;33659;42.672;23.354;2023-07-29T09:14:32;2.08;;;1.88;;
11691;SDS011;33659;42.672;23.354;2023-07-29T09:16:59;2.47;;;2.28;;
11691;SDS011;33659;42.672;23.354;2023-07-29T09:19:26;2.40;;;2.20;;
11691;SDS011;33659;42.672;23.354;2023-07-29T09:21:53;2.45;;;2.13;;
11691;SDS011;33659;42.672;23.354;2023-07-29T09:24:21;3.00;;;2.00;;
11691;SDS011;33659;42.672;23.354;2023-07-29T09:26:48;2.17;;;1.98;;
11691;SDS011;33659;42.672;23.354;2023-07-29T09:29:15;2.40;;;2.20;;
11691;SDS011;33659;42.672;23.354;2023-07-29T09:31:47;2.17;;;1.98;;
11691;SDS011;33659;42.672;23.354;2023-07-29T09:34:14;3.30;;;2.08;;
11691;SDS011;33659;42.672;23.354;2023-07-29T09:36:42;2.13;;;1.77;;
11691;SDS011;33659;42.672;23.354;2023-07-29T09:39:10;4.30;;;1.40;;
11691;SDS011;33659;42.672;23.354;2023-07-29T09:41:40;1.58;;;1.48;;
11691;SDS011;33659;42.672;23.354;2023-07-29T09:44:06;1.45;;;1.35;;
11691;SDS011;33659;42.672;23.354;2023-07-29T09:46:34;2.17;;;1.50;;
11691;SDS011;33659;42.672;23.354;2023-07-29T09:49:03;2.40;;;1.80;;
11691;SDS011;33659;42.672;23.354;2023-07-29T09:51:31;1.85;;;1.42;;
11691;SDS011;33659;42.672;23.354;2023-07-29T09:53:57;1.70;;;1.52;;
11691;SDS011;33659;42.672;23.354;2023-07-29T09:56:28;3.88;;;1.33;;
11691;SDS011;33659;42.672;23.354;2023-07-29T09:58:57;3.28;;;1.70;;
11691;SDS011;33659;42.672;23.354;2023-07-29T10:01:24;1.92;;;1.45;;
11691;SDS011;33659;42.672;23.354;2023-07-29T10:03:51;1.88;;;1.63;;
11691;SDS011;33659;42.672;23.354;2023-07-29T10:06:21;1.20;;;1.20;;
11691;SDS011;33659;42.672;23.354;2023-07-29T10:08:48;1.40;;;1.30;;
11691;SDS011;33659;42.672;23.354;2023-07-29T10:11:16;1.60;;;1.50;;
11691;SDS011;33659;42.672;23.354;2023-07-29T10:13:45;3.20;;;1.50;;
11691;SDS011;33659;42.672;23.354;2023-07-29T10:16:14;1.30;;;1.20;;
11691;SDS011;33659;42.672;23.354;2023-07-29T10:18:41;1.60;;;1.50;;
11691;SDS011;33659;42.672;23.354;2023-07-29T10:21:08;1.95;;;1.17;;
11691;SDS011;33659;42.672;23.354;2023-07-29T10:23:38;1.40;;;1.30;;
11691;SDS011;33659;42.672;23.354;2023-07-29T10:26:13;1.48;;;1.15;;
11691;SDS011;33659;42.672;23.354;2023-07-29T10:28:45;0.80;;;0.80;;
11691;SDS011;33659;42.672;23.354;2023-07-29T10:31:14;2.08;;;1.15;;
11691;SDS011;33659;42.672;23.354;2023-07-29T10:33:42;1.15;;;1.10;;
11691;SDS011;33659;42.672;23.354;2023-07-29T10:36:10;1.35;;;1.25;;
11691;SDS011;33659;42.672;23.354;2023-07-29T10:38:36;1.30;;;1.20;;
11691;SDS011;33659;42.672;23.354;2023-07-29T10:41:04;2.58;;;1.17;;
11691;SDS011;33659;42.672;23.354;2023-07-29T10:43:31;1.50;;;1.40;;
11691;SDS011;33659;42.672;23.354;2023-07-29T10:46:14;1.60;;;1.38;;
11691;SDS011;33659;42.672;23.354;2023-07-29T10:48:43;1.58;;;1.23;;
11691;SDS011;33659;42.672;23.354;2023-07-29T10:51:27;1.10;;;1.10;;
11691;SDS011;33659;42.672;23.354;2023-07-29T10:53:56;1.27;;;1.17;;
11691;SDS011;33659;42.672;23.354;2023-07-29T10:56:27;1.65;;;1.33;;
11691;SDS011;33659;42.672;23.354;2023-07-29T10:58:55;8.93;;;2.05;;
11691;SDS011;33659;42.672;23.354;2023-07-29T11:01:28;1.30;;;1.20;;
11691;SDS011;33659;42.672;23.354;2023-07-29T11:09:56;1.30;;;1.20;;
11691;SDS011;33659;42.672;23.354;2023-07-29T11:12:37;1.95;;;1.40;;
11691;SDS011;33659;42.672;23.354;2023-07-29T11:15:14;1.90;;;1.27;;
11691;SDS011;33659;42.672;23.354;2023-07-29T11:17:45;1.05;;;1.05;;
11691;SDS011;33659;42.672;23.354;2023-07-29T11:20:13;1.20;;;1.10;;
11691;SDS011;33659;42.672;23.354;2023-07-29T11:22:41;2.03;;;1.23;;
11691;SDS011;33659;42.672;23.354;2023-07-29T11:25:09;1.77;;;1.15;;
11691;SDS011;33659;42.672;23.354;2023-07-29T11:27:36;1.10;;;0.88;;
11691;SDS011;33659;42.672;23.354;2023-07-29T11:30:04;1.70;;;1.38;;
11691;SDS011;33659;42.672;23.354;2023-07-29T11:32:36;1.85;;;0.90;;
11691;SDS011;33659;42.672;23.354;2023-07-29T11:35:06;2.28;;;1.13;;
11691;SDS011;33659;42.672;23.354;2023-07-29T11:37:34;0.90;;;0.90;;
11691;SDS011;33659;42.672;23.354;2023-07-29T11:40:02;1.10;;;1.05;;
11691;SDS011;33659;42.672;23.354;2023-07-29T11:42:31;2.25;;;1.00;;
11691;SDS011;33659;42.672;23.354;2023-07-29T11:44:59;0.90;;;0.90;;
11691;SDS011;33659;42.672;23.354;2023-07-29T11:47:26;1.05;;;0.98;;
11691;SDS011;33659;42.672;23.354;2023-07-29T11:49:53;2.50;;;1.15;;
11691;SDS011;33659;42.672;23.354;2023-07-29T11:52:21;1.30;;;1.20;;
11691;SDS011;33659;42.672;23.354;2023-07-29T11:54:48;1.42;;;1.33;;
11691;SDS011;33659;42.672;23.354;2023-07-29T11:57:16;1.33;;;1.20;;
11691;SDS011;33659;42.672;23.354;2023-07-29T11:59:44;0.70;;;0.70;;
11691;SDS011;33659;42.672;23.354;2023-07-29T12:02:13;1.17;;;1.08;;
11691;SDS011;33659;42.672;23.354;2023-07-29T12:04:41;1.27;;;1.17;;
11691;SDS011;33659;42.672;23.354;2023-07-29T12:07:11;1.05;;;0.98;;
11691;SDS011;33659;42.672;23.354;2023-07-29T12:09:40;1.23;;;1.20;;
11691;SDS011;33659;42.672;23.354;2023-07-29T12:12:08;1.88;;;1.10;;
11691;SDS011;33659;42.672;23.354;2023-07-29T12:14:35;1.10;;;1.10;;
11691;SDS011;33659;42.672;23.354;2023-07-29T12:17:03;1.60;;;1.20;;
11691;SDS011;33659;42.672;23.354;2023-07-29T12:19:31;1.45;;;1.20;;
11691;SDS011;33659;42.672;23.354;2023-07-29T12:22:00;1.42;;;1.33;;
11691;SDS011;33659;42.672;23.354;2023-07-29T12:24:26;3.15;;;1.35;;
11691;SDS011;33659;42.672;23.354;2023-07-29T12:26:56;1.45;;;1.35;;
11691;SDS011;33659;42.672;23.354;2023-07-29T12:29:23;2.58;;;1.55;;
11691;SDS011;33659;42.672;23.354;2023-07-29T12:31:56;1.73;;;1.30;;
11691;SDS011;33659;42.672;23.354;2023-07-29T12:34:25;1.83;;;1.30;;
11691;SDS011;33659;42.672;23.354;2023-07-29T12:36:52;1.58;;;1.48;;
11691;SDS011;33659;42.672;23.354;2023-07-29T12:39:21;2.72;;;1.48;;
11691;SDS011;33659;42.672;23.354;2023-07-29T12:41:50;1.60;;;1.50;;
11691;SDS011;33659;42.672;23.354;2023-07-29T12:44:19;1.50;;;1.40;;
11691;SDS011;33659;42.672;23.354;2023-07-29T12:46:46;1.40;;;1.30;;
11691;SDS011;33659;42.672;23.354;2023-07-29T12:49:13;1.50;;;1.40;;
11691;SDS011;33659;42.672;23.354;2023-07-29T12:51:40;1.40;;;1.30;;
11691;SDS011;33659;42.672;23.354;2023-07-29T12:54:07;1.50;;;1.40;;
11691;SDS011;33659;42.672;23.354;2023-07-29T12:56:34;1.35;;;1.25;;
11691;SDS011;33659;42.672;23.354;2023-07-29T12:59:01;1.25;;;1.13;;
11691;SDS011;33659;42.672;23.354;2023-07-29T13:01:29;2.53;;;1.40;;
11691;SDS011;33659;42.672;23.354;2023-07-29T13:03:56;3.38;;;1.60;;
11691;SDS011;33659;42.672;23.354;2023-07-29T13:06:23;1.65;;;1.45;;
11691;SDS011;33659;42.672;23.354;2023-07-29T13:08:50;1.20;;;1.10;;
11691;SDS011;33659;42.672;23.354;2023-07-29T13:11:17;1.40;;;1.30;;
11691;SDS011;33659;42.672;23.354;2023-07-29T13:13:44;2.25;;;1.70;;
11691;SDS011;33659;42.672;23.354;2023-07-29T13:16:10;1.23;;;1.13;;
11691;SDS011;33659;42.672;23.354;2023-07-29T13:18:39;1.63;;;1.52;;
11691;SDS011;33659;42.672;23.354;2023-07-29T13:21:06;1.90;;;1.23;;
11691;SDS011;33659;42.672;23.354;2023-07-29T13:23:33;1.20;;;1.10;;
11691;SDS011;33659;42.672;23.354;2023-07-29T13:26:00;2.28;;;1.38;;
11691;SDS011;33659;42.672;23.354;2023-07-29T13:28:26;1.90;;;1.45;;
11691;SDS011;33659;42.672;23.354;2023-07-29T13:30:53;1.55;;;1.33;;
11691;SDS011;33659;42.672;23.354;2023-07-29T13:33:20;1.15;;;1.05;;
11691;SDS011;33659;42.672;23.354;2023-07-29T13:35:48;1.70;;;1.50;;
11691;SDS011;33659;42.672;23.354;2023-07-29T13:38:15;1.40;;;1.30;;
11691;SDS011;33659;42.672;23.354;2023-07-29T13:40:42;5.05;;;1.80;;
11691;SDS011;33659;42.672;23.354;2023-07-29T13:43:09;2.05;;;1.38;;
11691;SDS011;33659;42.672;23.354;2023-07-29T13:45:35;1.85;;;1.20;;
11691;SDS011;33659;42.672;23.354;2023-07-29T13:48:02;2.03;;;1.33;;
11691;SDS011;33659;42.672;23.354;2023-07-29T13:50:29;1.48;;;1.35;;
11691;SDS011;33659;42.672;23.354;2023-07-29T13:52:57;1.45;;;1.35;;
11691;SDS011;33659;42.672;23.354;2023-07-29T13:55:24;3.05;;;1.40;;
11691;SDS011;33659;42.672;23.354;2023-07-29T13:57:52;2.60;;;1.88;;
11691;SDS011;33659;42.672;23.354;2023-07-29T14:00:19;1.25;;;1.15;;
11691;SDS011;33659;42.672;23.354;2023-07-29T14:02:45;1.58;;;1.48;;
11691;SDS011;33659;42.672;23.354;2023-07-29T14:05:12;1.55;;;1.45;;
11691;SDS011;33659;42.672;23.354;2023-07-29T14:07:39;2.63;;;1.77;;
11691;SDS011;33659;42.672;23.354;2023-07-29T14:10:07;2.35;;;1.58;;
11691;SDS011;33659;42.672;23.354;2023-07-29T14:12:34;1.08;;;1.05;;
11691;SDS011;33659;42.672;23.354;2023-07-29T14:15:01;2.13;;;1.67;;
11691;SDS011;33659;42.672;23.354;2023-07-29T14:17:29;1.70;;;1.60;;
11691;SDS011;33659;42.672;23.354;2023-07-29T14:19:55;1.50;;;1.40;;
11691;SDS011;33659;42.672;23.354;2023-07-29T14:22:22;1.50;;;1.40;;
11691;SDS011;33659;42.672;23.354;2023-07-29T14:24:49;1.50;;;1.38;;
11691;SDS011;33659;42.672;23.354;2023-07-29T14:27:17;1.45;;;1.35;;
11691;SDS011;33659;42.672;23.354;2023-07-29T14:29:44;1.40;;;1.30;;
11691;SDS011;33659;42.672;23.354;2023-07-29T14:32:10;1.30;;;1.20;;
11691;SDS011;33659;42.672;23.354;2023-07-29T14:34:37;1.35;;;1.23;;
11691;SDS011;33659;42.672;23.354;2023-07-29T14:37:04;2.40;;;1.33;;
11691;SDS011;33659;42.672;23.354;2023-07-29T14:39:31;1.50;;;1.40;;
11691;SDS011;33659;42.672;23.354;2023-07-29T14:41:58;2.10;;;1.40;;